createdAt,value
2023-10-20T00:01:02.035Z,15.60
2023-10-20T00:03:29.179Z,15.60
2023-10-20T00:05:57.729Z,15.70
2023-10-20T00:08:24.709Z,15.60
2023-10-20T00:10:52.094Z,15.60
2023-10-20T00:13:19.058Z,15.60
2023-10-20T00:15:46.846Z,15.60
2023-10-20T00:18:14.568Z,15.60
2023-10-20T00:20:41.509Z,15.60
2023-10-20T00:23:08.521Z,15.50
2023-10-20T00:25:35.437Z,15.50
2023-10-20T00:28:02.420Z,15.50
2023-10-20T00:30:29.412Z,15.50
2023-10-20T00:33:00.272Z,15.50
2023-10-20T00:35:27.211Z,15.50
2023-10-20T00:37:54.323Z,15.50
2023-10-20T00:40:21.316Z,15.40
2023-10-20T00:42:48.327Z,15.50
2023-10-20T00:45:15.386Z,15.50
2023-10-20T00:47:46.143Z,15.40
2023-10-20T00:50:18.185Z,15.40
2023-10-20T00:52:51.106Z,15.50
2023-10-20T00:55:23.407Z,15.40
2023-10-20T00:57:51.758Z,15.40
2023-10-20T01:00:18.949Z,15.40
2023-10-20T01:02:46.019Z,15.40
2023-10-20T01:05:16.345Z,15.40
2023-10-20T01:07:45.103Z,15.40
2023-10-20T01:10:12.234Z,15.40
2023-10-20T01:12:40.320Z,15.40
2023-10-20T01:15:08.453Z,15.40
2023-10-20T01:17:35.995Z,15.40
2023-10-20T01:20:07.707Z,15.40
2023-10-20T01:22:35.353Z,15.40
2023-10-20T01:25:02.411Z,15.40
2023-10-20T01:27:29.924Z,15.40
2023-10-20T01:29:57.004Z,15.40
2023-10-20T01:32:23.973Z,15.40
2023-10-20T01:34:51.768Z,15.40
2023-10-20T01:37:19.218Z,15.40
2023-10-20T01:39:46.316Z,15.40
2023-10-20T01:42:13.323Z,15.40
2023-10-20T01:44:40.513Z,15.40
2023-10-20T01:47:07.605Z,15.40
2023-10-20T01:49:34.632Z,15.30
2023-10-20T01:52:01.541Z,15.30
2023-10-20T01:54:29.177Z,15.30
2023-10-20T01:56:56.138Z,15.40
2023-10-20T01:59:23.122Z,15.40
2023-10-20T02:01:50.202Z,15.30
2023-10-20T02:04:17.096Z,15.30
2023-10-20T02:06:44.135Z,15.30
2023-10-20T02:09:11.632Z,15.30
2023-10-20T02:11:38.620Z,15.30
2023-10-20T02:14:05.683Z,15.30
2023-10-20T02:16:33.005Z,15.30
2023-10-20T02:19:00.402Z,15.30
2023-10-20T02:21:27.474Z,15.20
2023-10-20T02:23:54.395Z,15.20
2023-10-20T02:26:22.339Z,15.20
2023-10-20T02:28:49.275Z,15.20
2023-10-20T02:31:20.819Z,15.20
2023-10-20T02:33:49.042Z,15.20
2023-10-20T02:36:21.339Z,15.20
2023-10-20T02:38:53.177Z,15.20
2023-10-20T02:41:20.700Z,15.20
2023-10-20T02:43:47.874Z,15.20
2023-10-20T02:46:17.658Z,15.10
2023-10-20T02:48:44.769Z,15.10
2023-10-20T02:51:14.338Z,15.20
2023-10-20T02:53:42.293Z,15.20
2023-10-20T02:56:21.058Z,15.20
2023-10-20T02:58:48.589Z,15.10
2023-10-20T03:01:19.109Z,15.20
2023-10-20T03:03:46.513Z,15.20
2023-10-20T03:06:13.561Z,15.10
2023-10-20T03:08:41.355Z,15.10
2023-10-20T03:11:09.821Z,15.10
2023-10-20T03:13:37.286Z,15.10
2023-10-20T03:16:04.328Z,15.10
2023-10-20T03:18:31.387Z,15.10
2023-10-20T03:21:02.727Z,15.10
2023-10-20T03:23:31.048Z,15.10
2023-10-20T03:25:58.553Z,15.10
2023-10-20T03:28:25.606Z,15.10
2023-10-20T03:30:52.824Z,15.00
2023-10-20T03:33:20.545Z,15.00
2023-10-20T03:35:47.810Z,15.00
2023-10-20T03:38:15.729Z,15.00
2023-10-20T03:40:43.342Z,15.00
2023-10-20T03:43:11.927Z,15.00
2023-10-20T03:45:43.485Z,15.00
2023-10-20T03:48:11.256Z,15.00
2023-10-20T03:50:43.236Z,15.00
2023-10-20T03:53:13.436Z,15.00
2023-10-20T03:55:40.952Z,14.90
2023-10-20T03:58:07.972Z,15.00
2023-10-20T04:00:38.033Z,14.90
2023-10-20T04:03:05.328Z,14.90
2023-10-20T04:05:33.070Z,15.00
2023-10-20T04:08:01.150Z,15.00
2023-10-20T04:10:28.067Z,14.90
2023-10-20T04:12:55.190Z,14.90
2023-10-20T04:15:26.952Z,14.90
2023-10-20T04:17:54.371Z,14.90
2023-10-20T04:20:22.659Z,14.90
2023-10-20T04:22:52.935Z,14.90
2023-10-20T04:25:24.175Z,14.90
2023-10-20T04:27:59.069Z,14.90
2023-10-20T04:30:45.137Z,14.90
2023-10-20T04:33:30.568Z,14.90
2023-10-20T04:36:15.910Z,14.90
2023-10-20T04:39:03.400Z,14.90
2023-10-20T04:41:48.725Z,14.90
2023-10-20T04:44:15.753Z,14.90
2023-10-20T04:47:06.677Z,14.90
2023-10-20T04:49:52.127Z,14.90
2023-10-20T04:52:19.056Z,14.80
2023-10-20T04:54:46.711Z,14.90
2023-10-20T04:57:23.143Z,14.90
2023-10-20T05:00:09.416Z,14.90
2023-10-20T05:02:52.538Z,14.90
2023-10-20T05:05:27.185Z,14.80
2023-10-20T05:08:04.826Z,14.80
2023-10-20T05:10:32.873Z,14.80
2023-10-20T05:13:00.300Z,14.80
2023-10-20T05:15:28.012Z,14.80
2023-10-20T05:17:55.065Z,14.80
2023-10-20T05:20:22.046Z,14.80
2023-10-20T05:22:49.498Z,14.80
2023-10-20T05:25:17.288Z,14.70
2023-10-20T05:27:44.451Z,14.70
2023-10-20T05:30:14.097Z,14.70
2023-10-20T05:32:41.447Z,14.70
2023-10-20T05:35:10.474Z,14.60
2023-10-20T05:37:37.692Z,14.60
2023-10-20T05:40:05.864Z,14.60
2023-10-20T05:42:33.036Z,14.50
2023-10-20T05:45:03.822Z,14.50
2023-10-20T05:47:31.654Z,14.50
2023-10-20T05:50:00.424Z,14.50
2023-10-20T05:52:28.027Z,14.40
2023-10-20T05:54:57.619Z,14.50
2023-10-20T05:57:25.746Z,14.40
2023-10-20T05:59:53.082Z,14.40
2023-10-20T06:02:20.049Z,14.30
2023-10-20T06:04:47.004Z,14.30
2023-10-20T06:07:14.107Z,14.30
2023-10-20T06:09:41.099Z,14.30
2023-10-20T06:12:11.457Z,14.20
2023-10-20T06:14:38.613Z,14.10
2023-10-20T06:17:05.576Z,14.10
2023-10-20T06:19:32.756Z,14.10
2023-10-20T06:22:03.866Z,14.10
2023-10-20T06:24:31.061Z,14.00
2023-10-20T06:27:03.814Z,14.00
2023-10-20T06:29:34.681Z,14.00
2023-10-20T06:32:08.169Z,14.00
2023-10-20T06:34:42.246Z,13.90
2023-10-20T06:37:09.803Z,13.90
2023-10-20T06:39:38.836Z,13.90
2023-10-20T06:42:10.742Z,13.80
2023-10-20T06:44:37.924Z,13.80
2023-10-20T06:47:05.865Z,13.70
2023-10-20T06:49:33.941Z,13.70
2023-10-20T06:52:04.976Z,13.70
2023-10-20T06:54:32.628Z,13.60
2023-10-20T06:57:00.796Z,13.60
2023-10-20T06:59:27.995Z,13.60
2023-10-20T07:02:01.303Z,13.70
2023-10-20T07:04:30.791Z,13.60
2023-10-20T07:06:58.604Z,13.60
2023-10-20T07:09:25.752Z,13.50
2023-10-20T07:11:53.467Z,13.50
2023-10-20T07:14:23.009Z,13.40
2023-10-20T07:16:50.339Z,13.40
2023-10-20T07:19:17.272Z,13.40
2023-10-20T07:21:44.437Z,13.40
2023-10-20T07:24:11.535Z,13.30
2023-10-20T07:26:41.949Z,13.30
2023-10-20T07:29:09.227Z,13.20
2023-10-20T07:31:39.276Z,13.30
2023-10-20T07:34:10.692Z,13.20
2023-10-20T07:36:37.761Z,13.20
2023-10-20T07:39:05.524Z,13.20
2023-10-20T07:41:32.534Z,13.20
2023-10-20T07:44:04.988Z,13.20
2023-10-20T07:46:32.502Z,13.20
2023-10-20T07:49:00.338Z,13.10
2023-10-20T07:51:28.128Z,13.10
2023-10-20T07:53:55.083Z,13.10
2023-10-20T07:56:22.019Z,13.10
2023-10-20T07:58:49.416Z,13.10
2023-10-20T08:01:16.626Z,13.00
2023-10-20T08:03:48.918Z,13.00
2023-10-20T08:06:17.320Z,13.00
2023-10-20T08:08:45.551Z,13.00
2023-10-20T08:11:13.164Z,13.00
2023-10-20T08:13:40.148Z,13.00
2023-10-20T08:16:09.021Z,13.00
2023-10-20T08:18:36.522Z,12.90
2023-10-20T08:21:10.677Z,12.90
2023-10-20T08:23:38.954Z,12.90
2023-10-20T08:26:06.654Z,12.90
2023-10-20T08:28:33.627Z,12.80
2023-10-20T08:31:15.099Z,12.90
2023-10-20T08:33:42.496Z,12.80
2023-10-20T08:36:17.211Z,12.80
2023-10-20T08:38:48.377Z,12.90
2023-10-20T08:41:19.431Z,12.80
2023-10-20T08:43:47.409Z,12.80
2023-10-20T08:46:17.396Z,12.80
2023-10-20T08:48:48.930Z,12.80
2023-10-20T08:51:18.576Z,12.70
2023-10-20T08:53:47.334Z,12.70
2023-10-20T08:56:15.284Z,12.70
2023-10-20T08:58:49.440Z,12.60
2023-10-20T09:01:19.813Z,12.60
2023-10-20T09:03:50.138Z,12.60
2023-10-20T09:06:17.566Z,12.60
2023-10-20T09:08:52.540Z,12.60
2023-10-20T09:11:26.573Z,12.60
2023-10-20T09:13:54.505Z,12.60
2023-10-20T09:16:21.660Z,12.50
2023-10-20T09:21:23.819Z,12.60
2023-10-20T09:24:01.928Z,12.50
2023-10-20T09:26:33.223Z,12.50
2023-10-20T09:29:00.750Z,12.50
2023-10-20T09:31:30.027Z,12.40
2023-10-20T09:33:57.218Z,12.40
2023-10-20T09:36:24.813Z,12.40
2023-10-20T09:38:54.232Z,12.30
2023-10-20T09:41:26.698Z,12.30
2023-10-20T09:44:07.014Z,12.30
2023-10-20T09:46:56.393Z,12.30
2023-10-20T09:49:28.349Z,12.20
2023-10-20T09:51:58.237Z,12.30
2023-10-20T09:54:30.927Z,12.20
2023-10-20T09:57:00.666Z,12.20
2023-10-20T09:59:29.171Z,12.20
2023-10-20T10:01:58.659Z,12.20
2023-10-20T10:04:36.882Z,12.20
2023-10-20T10:07:10.641Z,12.20
2023-10-20T10:09:44.314Z,12.20
2023-10-20T10:12:15.955Z,12.20
2023-10-20T10:14:43.112Z,12.20
2023-10-20T10:17:13.137Z,12.20
2023-10-20T10:19:52.849Z,12.20
2023-10-20T10:22:31.738Z,12.10
2023-10-20T10:25:01.603Z,12.10
2023-10-20T10:27:30.160Z,12.10
2023-10-20T10:30:07.466Z,12.10
2023-10-20T10:32:46.253Z,12.10
2023-10-20T10:35:18.292Z,12.10
2023-10-20T10:37:45.631Z,12.10
2023-10-20T10:40:20.441Z,12.10
2023-10-20T10:42:50.730Z,12.10
2023-10-20T10:45:31.657Z,12.00
2023-10-20T10:48:13.312Z,12.00
2023-10-20T10:50:49.134Z,12.00
2023-10-20T10:53:16.719Z,12.10
2023-10-20T10:55:45.184Z,12.10
2023-10-20T10:58:15.994Z,12.10
2023-10-20T11:00:46.077Z,12.00
2023-10-20T11:03:17.433Z,12.00
2023-10-20T11:05:44.853Z,12.00
2023-10-20T11:08:16.385Z,12.00
2023-10-20T11:10:50.583Z,11.90
2023-10-20T11:13:21.822Z,12.00
2023-10-20T11:15:49.474Z,12.00
2023-10-20T11:18:18.132Z,12.00
2023-10-20T11:20:48.929Z,12.00
2023-10-20T11:23:20.586Z,12.00
2023-10-20T11:25:50.060Z,12.00
2023-10-20T11:28:20.239Z,12.00
2023-10-20T11:30:48.160Z,12.00
2023-10-20T11:33:17.348Z,12.10
2023-10-20T11:35:45.636Z,12.10
2023-10-20T11:38:17.681Z,12.10
2023-10-20T11:40:48.772Z,12.10
2023-10-20T11:43:18.595Z,12.00
2023-10-20T11:45:46.377Z,12.10
2023-10-20T11:48:13.478Z,12.10
2023-10-20T11:50:40.993Z,12.10
2023-10-20T11:53:08.306Z,12.20
2023-10-20T11:55:36.249Z,12.20
2023-10-20T11:58:05.340Z,12.20
2023-10-20T12:00:32.848Z,12.20
2023-10-20T12:03:00.063Z,12.20
2023-10-20T12:05:27.194Z,12.20
2023-10-20T12:07:54.203Z,12.30
2023-10-20T12:10:24.995Z,12.20
2023-10-20T12:12:52.848Z,12.20
2023-10-20T12:15:19.963Z,12.30
2023-10-20T12:17:46.977Z,12.30
2023-10-20T12:20:14.560Z,12.30
2023-10-20T12:22:41.757Z,12.30
2023-10-20T12:25:09.750Z,12.30
2023-10-20T12:27:36.937Z,12.30
2023-10-20T12:30:05.694Z,12.40
2023-10-20T12:32:33.540Z,12.40
2023-10-20T12:35:02.971Z,12.40
2023-10-20T12:37:30.067Z,12.40
2023-10-20T12:40:00.368Z,12.40
2023-10-20T12:42:28.475Z,12.50
2023-10-20T12:44:55.600Z,12.50
2023-10-20T12:47:24.058Z,12.50
2023-10-20T12:49:55.877Z,12.50
2023-10-20T12:52:23.196Z,12.50
2023-10-20T12:54:51.635Z,12.60
2023-10-20T12:57:18.681Z,12.60
2023-10-20T12:59:45.632Z,12.60
2023-10-20T13:02:12.619Z,12.60
2023-10-20T13:04:39.612Z,12.70
2023-10-20T13:07:06.586Z,12.70
2023-10-20T13:09:33.582Z,12.70
2023-10-20T13:12:00.757Z,12.80
2023-10-20T13:14:29.666Z,12.80
2023-10-20T13:16:58.171Z,12.80
2023-10-20T13:19:25.209Z,12.80
2023-10-20T13:21:52.359Z,12.90
2023-10-20T13:24:19.302Z,12.90
2023-10-20T13:26:46.359Z,12.90
2023-10-20T13:29:13.443Z,12.90
2023-10-20T13:31:40.460Z,12.90
2023-10-20T13:34:07.577Z,12.90
2023-10-20T13:36:36.213Z,12.90
2023-10-20T13:39:16.606Z,13.00
2023-10-20T13:41:45.740Z,13.00
2023-10-20T13:44:14.149Z,13.00
2023-10-20T13:46:41.097Z,13.00
2023-10-20T13:49:08.073Z,13.00
2023-10-20T13:51:35.312Z,13.00
2023-10-20T13:54:02.306Z,13.10
2023-10-20T13:56:29.257Z,13.10
2023-10-20T13:58:56.260Z,13.10
2023-10-20T14:01:23.659Z,13.20
2023-10-20T14:03:50.989Z,13.20
2023-10-20T14:06:18.533Z,13.20
2023-10-20T14:08:48.271Z,13.20
2023-10-20T14:11:15.898Z,13.30
2023-10-20T14:13:43.003Z,13.30
2023-10-20T14:16:10.308Z,13.30
2023-10-20T14:18:37.578Z,13.40
2023-10-20T14:21:05.766Z,13.40
2023-10-20T14:23:36.603Z,13.40
2023-10-20T14:26:04.147Z,13.50
2023-10-20T14:28:33.961Z,13.50
2023-10-20T14:31:06.740Z,13.60
2023-10-20T14:33:35.361Z,13.60
2023-10-20T14:36:02.474Z,13.60
2023-10-20T14:38:35.731Z,13.70
2023-10-20T14:41:05.669Z,13.70
2023-10-20T14:43:43.772Z,13.70
2023-10-20T14:46:11.308Z,13.80
2023-10-20T14:48:38.987Z,13.80
2023-10-20T14:51:08.291Z,13.80
2023-10-20T14:53:36.145Z,13.90
2023-10-20T14:56:07.369Z,13.90
2023-10-20T14:58:34.545Z,14.00
2023-10-20T15:01:01.875Z,14.00
2023-10-20T15:03:31.951Z,14.00
2023-10-20T15:06:03.332Z,14.10
2023-10-20T15:08:40.000Z,14.10
2023-10-20T15:11:08.946Z,14.20
2023-10-20T15:13:39.543Z,14.20
2023-10-20T15:16:09.876Z,14.20
2023-10-20T15:18:37.825Z,14.20
2023-10-20T15:21:12.260Z,14.30
2023-10-20T15:23:39.450Z,14.30
2023-10-20T15:26:12.223Z,14.30
2023-10-20T15:28:39.570Z,14.40
2023-10-20T15:31:10.447Z,14.40
2023-10-20T15:33:39.771Z,14.40
2023-10-20T15:36:11.065Z,14.40
2023-10-20T15:38:39.008Z,14.40
2023-10-20T15:41:06.303Z,14.40
2023-10-20T15:43:38.404Z,14.40
2023-10-20T15:46:08.614Z,14.40
2023-10-20T15:48:38.394Z,14.50
2023-10-20T15:51:06.386Z,14.50
2023-10-20T15:53:33.596Z,14.50
2023-10-20T15:56:00.732Z,14.50
2023-10-20T15:58:27.733Z,14.50
2023-10-20T16:01:02.006Z,14.50
2023-10-20T16:03:29.797Z,14.40
2023-10-20T16:05:56.947Z,14.50
2023-10-20T16:08:24.315Z,14.50
2023-10-20T16:10:51.417Z,14.50
2023-10-20T16:13:18.355Z,14.50
2023-10-20T16:15:46.538Z,14.50
2023-10-20T16:18:13.769Z,14.50
2023-10-20T16:20:41.488Z,14.60
2023-10-20T16:23:08.815Z,14.60
2023-10-20T16:25:36.739Z,14.60
2023-10-20T16:28:04.529Z,14.60
2023-10-20T16:30:31.533Z,14.60
2023-10-20T16:32:58.616Z,14.60
2023-10-20T16:35:25.875Z,14.60
2023-10-20T16:37:53.732Z,14.60
2023-10-20T16:40:21.940Z,14.60
2023-10-20T16:42:48.878Z,14.60
2023-10-20T16:45:16.560Z,14.60
2023-10-20T16:47:43.574Z,14.60
2023-10-20T16:50:10.739Z,14.60
2023-10-20T16:52:38.467Z,14.60
2023-10-20T16:55:05.945Z,14.60
2023-10-20T16:57:32.914Z,14.60
2023-10-20T17:00:00.025Z,14.60
2023-10-20T17:02:27.116Z,14.60
2023-10-20T17:04:54.237Z,14.60
2023-10-20T17:07:21.239Z,14.60
2023-10-20T17:09:48.163Z,14.50
2023-10-20T17:12:15.251Z,14.50
2023-10-20T17:14:43.628Z,14.60
2023-10-20T17:17:10.628Z,14.60
2023-10-20T17:19:38.689Z,14.50
2023-10-20T17:22:05.690Z,14.50
2023-10-20T17:24:32.595Z,14.60
2023-10-20T17:26:59.552Z,14.60
2023-10-20T17:29:27.093Z,14.60
2023-10-20T17:31:54.073Z,14.60
2023-10-20T17:34:21.178Z,14.60
2023-10-20T17:36:48.259Z,14.60
2023-10-20T17:39:15.411Z,14.60
2023-10-20T17:41:42.340Z,14.60
2023-10-20T17:44:16.335Z,14.60
2023-10-20T17:46:43.328Z,14.60
2023-10-20T17:49:10.412Z,14.60
2023-10-20T17:51:37.971Z,14.60
2023-10-20T17:54:05.177Z,14.60
2023-10-20T17:56:32.462Z,14.60
2023-10-20T17:59:00.156Z,14.70
2023-10-20T18:01:27.505Z,14.60
2023-10-20T18:03:55.461Z,14.60
2023-10-20T18:06:22.746Z,14.60
2023-10-20T18:08:58.140Z,14.60
2023-10-20T18:11:26.372Z,14.60
2023-10-20T18:13:54.640Z,14.60
2023-10-20T18:16:25.510Z,14.60
2023-10-20T18:18:53.064Z,14.60
2023-10-20T18:21:23.295Z,14.60
2023-10-20T18:23:58.463Z,14.70
2023-10-20T18:26:25.657Z,14.60
2023-10-20T18:28:52.819Z,14.70
2023-10-20T18:31:22.295Z,14.70
2023-10-20T18:33:49.436Z,14.60
2023-10-20T18:36:34.837Z,14.70
2023-10-20T18:39:03.038Z,14.70
2023-10-20T18:41:30.956Z,14.60
2023-10-20T18:44:01.200Z,14.60
2023-10-20T18:46:28.224Z,14.60
2023-10-20T18:48:58.880Z,14.60
2023-10-20T18:51:25.828Z,14.60
2023-10-20T18:53:53.368Z,14.60
2023-10-20T18:56:20.482Z,14.60
2023-10-20T18:58:47.877Z,14.60
2023-10-20T19:01:15.000Z,14.60
2023-10-20T19:03:44.364Z,14.60
2023-10-20T19:06:13.814Z,14.50
2023-10-20T19:08:41.656Z,14.50
2023-10-20T19:11:12.028Z,14.50
2023-10-20T19:13:39.219Z,14.50
2023-10-20T19:16:06.657Z,14.50
2023-10-20T19:18:34.110Z,14.50
2023-10-20T19:21:03.858Z,14.50
2023-10-20T19:23:31.342Z,14.60
2023-10-20T19:26:13.018Z,14.60
2023-10-20T19:28:40.086Z,14.60
2023-10-20T19:31:11.085Z,14.60
2023-10-20T19:33:39.195Z,14.60
2023-10-20T19:36:09.538Z,14.60
2023-10-20T19:38:37.872Z,14.60
2023-10-20T19:41:05.006Z,14.60
2023-10-20T19:43:31.973Z,14.50
2023-10-20T19:45:59.022Z,14.50
2023-10-20T19:48:26.297Z,14.50
2023-10-20T19:50:53.403Z,14.50
2023-10-20T19:53:20.924Z,14.50
2023-10-20T19:55:47.912Z,14.50
2023-10-20T19:58:14.962Z,14.50
2023-10-20T20:00:42.138Z,14.50
2023-10-20T20:03:11.181Z,14.50
2023-10-20T20:05:38.279Z,14.50
2023-10-20T20:08:05.348Z,14.50
2023-10-20T20:10:32.382Z,14.50
2023-10-20T20:12:59.315Z,14.50
2023-10-20T20:15:26.441Z,14.50
2023-10-20T20:17:53.464Z,14.50
2023-10-20T20:20:20.527Z,14.50
2023-10-20T20:22:49.834Z,14.50
2023-10-20T20:25:16.859Z,14.50
2023-10-20T20:27:43.878Z,14.40
2023-10-20T20:30:11.535Z,14.40
2023-10-20T20:32:38.612Z,14.40
2023-10-20T20:35:07.345Z,14.40
2023-10-20T20:37:34.515Z,14.40
2023-10-20T20:40:01.560Z,14.40
2023-10-20T20:42:28.479Z,14.40
2023-10-20T20:44:55.663Z,14.40
2023-10-20T20:47:22.753Z,14.40
2023-10-20T20:49:49.688Z,14.30
2023-10-20T20:52:17.408Z,14.30
2023-10-20T20:54:44.415Z,14.30
2023-10-20T20:57:11.398Z,14.30
2023-10-20T20:59:38.597Z,14.20
2023-10-20T21:02:05.726Z,14.20
2023-10-20T21:04:32.930Z,14.20
2023-10-20T21:07:01.135Z,14.20
2023-10-20T21:09:30.790Z,14.20
2023-10-20T21:11:57.759Z,14.20
2023-10-20T21:14:24.856Z,14.20
2023-10-20T21:16:51.832Z,14.20
2023-10-20T21:19:19.564Z,14.20
2023-10-20T21:21:46.454Z,14.20
2023-10-20T21:24:14.030Z,14.20
2023-10-20T21:26:41.154Z,14.10
2023-10-20T21:29:08.785Z,14.10
2023-10-20T21:31:35.820Z,14.10
2023-10-20T21:34:02.791Z,14.10
2023-10-20T21:36:29.850Z,14.00
2023-10-20T21:38:56.854Z,14.00
2023-10-20T21:41:24.122Z,14.00
2023-10-20T21:43:51.014Z,14.10
2023-10-20T21:46:17.989Z,14.00
2023-10-20T21:48:44.946Z,14.00
2023-10-20T21:51:12.195Z,14.00
2023-10-20T21:53:40.036Z,14.00
2023-10-20T21:56:12.623Z,14.00
2023-10-20T21:58:39.965Z,14.00
2023-10-20T22:01:10.794Z,13.90
2023-10-20T22:03:41.015Z,13.90
2023-10-20T22:06:09.866Z,13.90
2023-10-20T22:08:37.060Z,14.00
2023-10-20T22:11:04.143Z,13.90
2023-10-20T22:13:31.404Z,13.90
2023-10-20T22:15:58.379Z,13.90
2023-10-20T22:18:25.757Z,13.90
2023-10-20T22:20:53.012Z,13.80
2023-10-20T22:23:20.064Z,13.80
2023-10-20T22:25:47.100Z,13.90
2023-10-20T22:28:14.060Z,13.90
2023-10-20T22:30:41.173Z,13.90
2023-10-20T22:33:08.212Z,13.90
2023-10-20T22:35:35.374Z,13.80
2023-10-20T22:38:02.460Z,13.90
2023-10-20T22:40:29.387Z,13.90
2023-10-20T22:42:57.094Z,13.90
2023-10-20T22:45:24.069Z,13.90
2023-10-20T22:47:51.083Z,13.90
2023-10-20T22:50:21.084Z,13.90
2023-10-20T22:52:48.813Z,13.90
2023-10-20T22:55:16.238Z,13.80
2023-10-20T22:57:46.350Z,13.80
2023-10-20T23:00:14.385Z,13.80
2023-10-20T23:02:41.804Z,13.80
2023-10-20T23:05:10.600Z,13.90
2023-10-20T23:07:37.723Z,13.80
2023-10-20T23:10:05.891Z,13.80
2023-10-20T23:12:34.232Z,13.80
2023-10-20T23:15:01.823Z,13.80
2023-10-20T23:17:29.159Z,13.80
2023-10-20T23:19:57.889Z,13.80
2023-10-20T23:22:26.463Z,13.80
2023-10-20T23:24:54.262Z,13.80
2023-10-20T23:27:21.200Z,13.80
2023-10-20T23:29:48.403Z,13.80
2023-10-20T23:32:15.363Z,13.70
2023-10-20T23:34:42.706Z,13.70
2023-10-20T23:37:09.648Z,13.70
2023-10-20T23:39:36.977Z,13.70
2023-10-20T23:42:05.458Z,13.70
2023-10-20T23:44:32.631Z,13.70
2023-10-20T23:46:59.670Z,13.70
2023-10-20T23:49:26.820Z,13.60
2023-10-20T23:51:53.799Z,13.60
2023-10-20T23:54:20.906Z,13.60
2023-10-20T23:56:47.974Z,13.60
2023-10-20T23:59:14.891Z,13.60
